• Join FlightAware (Why Join?)
  • Login
  • US Flag 
03:10AM EDT


 

Airport Tracker/Info


-or-


 

Live Flight TrackerFlight Track Log ✈ N609RL ✈ 22-Jul-2013 ✈ KRAW - KJYR

Flight Track Log - Related Links

Times and Time Zones

All times are in EDT time to prevent confusion due to time zone crossing. See the N609RL flight status page for this flight to view local times or setup timezone preferences in your user account.

Time Position Orientation Groundspeed Altitude Reporting Facility
EDT Latitude Longitude Course Direction KTS MPH feet Rate Location/Type
03:34PM 38.4119 -93.4492 314° West 118 136 3,400  Level Kansas City Center
03:35PM 38.4311 -93.4808 308° West 116 133 3,900 540 Climbing Kansas City Center
03:36PM 38.4567 -93.5181 311° West 115 132 4,600 600 Climbing Kansas City Center
03:37PM 38.4647 -93.5575 285° West 114 131 5,200 540 Climbing Kansas City Center
03:38PM 38.4642 -93.5997 269° West 115 132 5,800 480 Climbing Kansas City Center
03:39PM 38.5074 -93.6099 314° West  Level FlightAware Approximate
03:39PM 38.4675 -93.6392 276° West 113 130 6,300  Level Kansas City Center
03:40PM 38.4708 -93.6844 275° West 124 143 6,800 480 Climbing Kansas City Center
03:41PM 38.4881 -93.7211 301° West 124 143 7,400 540 Climbing Kansas City Center
03:42PM 38.5153 -93.7550 316° Northwest 127 146 8,000 540 Climbing Kansas City Center
03:43PM 38.5417 -93.7922 312° West 127 146 8,600 540 Climbing Kansas City Center
03:44PM 38.5606 -93.8264 305° West 125 144 9,200 540 Climbing Kansas City Center
03:45PM 38.5869 -93.8608 314° West 119 137 9,800 360 Climbing Kansas City Center
03:46PM 38.6083 -93.8953 308° West 129 148 10,000 60 Climbing Kansas City Center
03:47PM 38.6369 -93.9372 311° West 140 161 10,000  Level Kansas City Center
03:48PM 38.6622 -93.9775 309° West 151 174 10,000  Level Kansas City Center
03:49PM 38.6917 -94.0231 310° West 149 171 10,000  Level Kansas City Center
03:50PM 38.7178 -94.0619 311° West 152 175 10,000  Level Kansas City Center
03:51PM 38.7469 -94.1061 310° West 146 168 10,000  Level Kansas City Center
03:52PM 38.7717 -94.1461 308° West 148 170 10,000  Level Kansas City Center
03:53PM 38.8006 -94.1922 309° West 148 170 10,000  Level Kansas City Center
03:54PM 38.8264 -94.2317 310° West 151 174 10,000  Level Kansas City Center
03:55PM 38.8514 -94.2706 310° West 148 170 10,000  Level Kansas City Center
03:57PM 38.8808 -94.3169 309° West 150 173 10,000  Level Kansas City Center
03:58PM 38.9058 -94.3556 310° West 147 169 10,000  Level Kansas City Center
03:59PM 38.9353 -94.4019 309° West 151 174 10,000  Level Kansas City Center
04:00PM 38.9608 -94.4411 310° West 150 173 10,100  Climbing Kansas City Center
04:01PM 38.9906 -94.4883 309° West 151 174 10,000  Descending Kansas City Center
04:02PM 39.0161 -94.5275 310° West 149 171 10,100  Climbing Kansas City Center
04:03PM 39.0467 -94.5744 310° West 154 177 10,100 -60 Level Kansas City Center
04:04PM 39.0744 -94.6139 312° West 154 177 10,000 -60 Descending Kansas City Center
04:05PM 39.1031 -94.6639 306° West 156 180 10,000  Level Kansas City Center
04:06PM 39.1303 -94.7058 310° West 158 182 10,000  Level Kansas City Center
04:07PM 39.1617 -94.7553 309° West 161 185 10,000  Level Kansas City Center
04:08PM 39.1889 -94.7975 310° West 161 185 10,000  Level Kansas City Center
04:09PM 39.2200 -94.8481 308° West 161 185 10,000  Level Kansas City Center
04:10PM 39.2472 -94.8892 311° West 158 182 10,000  Level Kansas City Center
04:11PM 39.2781 -94.9414 307° West 163 188 10,100  Climbing Kansas City Center
04:12PM 39.3061 -94.9847 310° West 165 190 10,000 -60 Descending Kansas City Center
04:13PM 39.3392 -95.0375 309° West 170 196 10,000  Level Kansas City Center
04:14PM 39.3672 -95.0831 309° West 171 197 10,000  Level Kansas City Center
04:15PM 39.4000 -95.1353 309° West 168 193 10,000  Level Kansas City Center
04:16PM 39.4283 -95.1806 309° West 169 194 10,000  Level Kansas City Center
04:17PM 39.4600 -95.2317 309° West 164 189 10,000  Level Kansas City Center
04:18PM 39.4886 -95.2764 310° West 168 193 10,000  Level Kansas City Center
04:19PM 39.5217 -95.3297 309° West 170 196 10,000  Level Kansas City Center
04:20PM 39.5500 -95.3747 309° West 169 194 10,000  Level Kansas City Center
04:21PM 39.5775 -95.4211 308° West 170 196 10,000  Level Kansas City Center
04:22PM 39.6117 -95.4736 310° West 170 196 10,000  Level Kansas City Center
04:23PM 39.6394 -95.5183 309° West 168 193 10,000  Level Kansas City Center
04:24PM 39.6719 -95.5700 309° West 166 191 10,000  Level Kansas City Center
04:25PM 39.6989 -95.6156 308° West 166 191 10,000  Level Kansas City Center
04:27PM 39.7314 -95.6678 309° West 166 191 10,000  Level Kansas City Center
04:28PM 39.7589 -95.7136 308° West 167 192 10,000  Level Kansas City Center
04:29PM 39.7925 -95.7678 309° West 172 198 10,000  Level Kansas City Center
04:30PM 39.8203 -95.8144 308° West 171 197 10,000  Level Kansas City Center
04:31PM 39.8525 -95.8689 308° West 171 197 10,000  Level Kansas City Center
04:32PM 39.8803 -95.9150 308° West 169 194 10,000  Level Kansas City Center
04:33PM 39.9117 -95.9678 308° West 165 190 10,100  Climbing Kansas City Center
04:34PM 39.9397 -96.0128 309° West 167 192 10,000  Descending Kansas City Center
04:35PM 39.9711 -96.0656 308° West 166 191 10,100  Climbing Kansas City Center
04:36PM 39.9989 -96.1114 308° West 168 193 10,100  Level Kansas City Center
04:37PM 40.0275 -96.1578 309° West 170 196 10,100  Level Kansas City Center
04:38PM 40.0606 -96.2131 308° West 173 199 10,100  Level Kansas City Center
04:39PM 40.0894 -96.2603 309° West 173 199 10,100 -60 Level Kansas City Center
04:40PM 40.1231 -96.3156 309° West 173 199 10,000 -60 Descending Kansas City Center
04:41PM 40.1517 -96.3631 308° West 173 199 10,000  Level Kansas City Center
04:42PM 40.1853 -96.4200 308° West 176 203 10,000  Level Kansas City Center
04:43PM 40.2150 -96.4669 310° West 176 203 10,000  Level Kansas City Center
04:44PM 40.2492 -96.5217 309° West 174 200 10,000  Level Kansas City Center
04:45PM 40.2778 -96.5694 308° West 174 200 10,000  Level Kansas City Center
04:46PM 40.3086 -96.6250 306° West 169 194 10,000  Level Kansas City Center
04:47PM 40.3400 -96.6769 308° West 173 199 10,000  Level Kansas City Center
04:48PM 40.3686 -96.7219 310° West 169 194 10,000 -120 Level Kansas City Center
04:49PM 40.4056 -96.7853 307° West 171 197 9,800 -300 Descending Minneapolis Center
04:50PM 40.4350 -96.8386 306° West 179 206 9,400 -420 Descending Minneapolis Center